Grasonville, Maryland
Current Conditions -  °F | °C
As of 6:50 AM on Monday 24 Nov 2014 (Local Time) from KESN Reporting Station
Overcast Overcast  
Wind Chill: 64°   Ceiling: 800
Heat Index: 64°   Visibility: 10mi
Dew Point: 64°   Wind: 16mph
Humidity: 100%   Direction: 200°SSW
Pressure: 29.74"   Gusts: 32mph
Location:  38.96°N, 76.21°W
Report Text: KESN 241150Z 20014G28KT 10SM OVC008 18/18 A2974
Loading
Personal Weather Stations






























Interactive Weather Map New forecast layout! Learn more

10-Day Weather Forecast

Advertisements
Track Severe Weather on mobile